createdAt,value
2019-04-06T00:01:13.683Z,91.30
2019-04-06T00:03:42.115Z,91.51
2019-04-06T00:06:10.510Z,91.48
2019-04-06T00:08:38.986Z,91.23
2019-04-06T00:11:07.491Z,91.20
2019-04-06T00:13:35.882Z,90.92
2019-04-06T00:16:04.363Z,90.97
2019-04-06T00:18:32.838Z,90.79
2019-04-06T00:21:01.262Z,90.75
2019-04-06T00:23:29.666Z,90.59
2019-04-06T00:25:58.084Z,90.60
2019-04-06T00:28:26.501Z,90.69
2019-04-06T00:30:56.554Z,90.54
2019-04-06T00:33:26.744Z,90.50
2019-04-06T00:35:55.138Z,90.57
2019-04-06T00:38:23.620Z,90.61
2019-04-06T00:40:52.064Z,90.31
2019-04-06T00:43:20.431Z,90.52
2019-04-06T00:45:48.851Z,90.63
2019-04-06T00:48:17.401Z,90.73
2019-04-06T00:50:45.816Z,90.66
2019-04-06T00:53:14.295Z,91.02
2019-04-06T00:55:42.692Z,90.94
2019-04-06T00:58:11.145Z,91.10
2019-04-06T01:00:39.606Z,91.16
2019-04-06T01:03:08.010Z,91.31
2019-04-06T01:05:36.456Z,91.36
2019-04-06T01:08:05.029Z,91.42
2019-04-06T01:10:33.437Z,91.39
2019-04-06T01:13:01.848Z,91.36
2019-04-06T01:15:30.271Z,91.30
2019-04-06T01:17:58.690Z,91.39
2019-04-06T01:20:27.104Z,91.37
2019-04-06T01:22:55.497Z,91.51
2019-04-06T01:25:23.914Z,91.57
2019-04-06T01:27:52.318Z,91.62
2019-04-06T01:30:22.076Z,91.62
2019-04-06T01:32:50.519Z,91.57
2019-04-06T01:35:18.934Z,91.65
2019-04-06T01:37:47.345Z,91.84
2019-04-06T01:40:15.871Z,91.91
2019-04-06T01:42:44.292Z,91.71
2019-04-06T01:45:12.948Z,91.68
2019-04-06T01:47:41.408Z,91.59
2019-04-06T01:50:09.836Z,91.60
2019-04-06T01:52:38.323Z,91.55
2019-04-06T01:55:06.844Z,91.47
2019-04-06T01:57:35.427Z,91.49
2019-04-06T02:00:06.190Z,91.53
2019-04-06T02:02:36.314Z,91.44
2019-04-06T02:05:07.255Z,91.69
2019-04-06T02:07:35.682Z,91.48
2019-04-06T02:10:06.113Z,91.47
2019-04-06T02:12:34.515Z,91.46
2019-04-06T02:15:03.409Z,91.35
2019-04-06T02:17:31.802Z,91.41
2019-04-06T02:20:00.216Z,91.47
2019-04-06T02:22:28.614Z,91.29
2019-04-06T02:24:57.012Z,91.39
2019-04-06T02:27:25.435Z,91.54
2019-04-06T02:30:10.841Z,91.47
2019-04-06T02:32:43.499Z,91.52
2019-04-06T02:35:25.227Z,91.80
2019-04-06T02:37:55.260Z,91.93
2019-04-06T02:40:25.323Z,92.03
2019-04-06T02:43:04.092Z,92.19
2019-04-06T02:45:32.483Z,92.14
2019-04-06T02:48:00.924Z,92.37
2019-04-06T02:50:29.463Z,92.53
2019-04-06T02:52:57.899Z,92.59
2019-04-06T02:55:26.314Z,92.68
2019-04-06T02:57:54.742Z,92.72
2019-04-06T03:00:23.254Z,92.64
2019-04-06T03:02:51.778Z,92.45
2019-04-06T03:05:20.259Z,92.47
2019-04-06T03:07:48.738Z,92.37
2019-04-06T03:10:17.305Z,92.51
2019-04-06T03:12:45.726Z,92.55
2019-04-06T03:15:14.356Z,92.53
2019-04-06T03:17:42.831Z,92.60
2019-04-06T03:20:11.462Z,92.71
2019-04-06T03:22:40.044Z,92.59
2019-04-06T03:25:08.601Z,92.51
2019-04-06T03:27:37.088Z,92.49
2019-04-06T03:30:07.453Z,92.44
2019-04-06T03:32:35.916Z,92.51
2019-04-06T03:35:05.766Z,92.49
2019-04-06T03:37:34.154Z,92.37
2019-04-06T03:40:02.539Z,92.53
2019-04-06T03:42:30.958Z,92.63
2019-04-06T03:44:59.423Z,92.82
2019-04-06T03:47:27.851Z,92.93
2019-04-06T03:49:56.256Z,92.99
2019-04-06T03:52:24.868Z,92.92
2019-04-06T03:54:53.246Z,92.87
2019-04-06T03:57:21.666Z,93.12
2019-04-06T03:59:50.067Z,93.27
2019-04-06T04:02:18.803Z,93.22
2019-04-06T04:04:47.328Z,93.30
2019-04-06T04:07:15.769Z,93.18
2019-04-06T04:09:45.018Z,93.29
2019-04-06T04:12:13.429Z,93.29
2019-04-06T04:14:41.922Z,93.30
2019-04-06T04:17:10.455Z,93.14
2019-04-06T04:19:38.822Z,93.28
2019-04-06T04:22:07.262Z,93.16
2019-04-06T04:24:35.754Z,93.05
2019-04-06T04:27:04.343Z,93.17
2019-04-06T04:29:32.763Z,93.19
2019-04-06T04:32:01.213Z,93.33
2019-04-06T04:34:29.631Z,93.37
2019-04-06T04:36:58.115Z,93.36
2019-04-06T04:39:26.540Z,93.26
2019-04-06T04:41:54.962Z,93.27
2019-04-06T04:44:23.363Z,93.34
2019-04-06T04:46:51.804Z,93.31
2019-04-06T04:49:20.405Z,93.23
2019-04-06T04:51:48.747Z,93.14
2019-04-06T04:54:17.194Z,93.12
2019-04-06T04:56:45.585Z,93.13
2019-04-06T04:59:14.004Z,93.10
2019-04-06T05:01:42.501Z,93.10
2019-04-06T05:04:10.912Z,93.14
2019-04-06T05:06:39.358Z,93.07
2019-04-06T05:09:08.118Z,92.97
2019-04-06T05:11:36.498Z,92.99
2019-04-06T05:14:41.084Z,93.00
2019-04-06T05:17:09.516Z,93.14
2019-04-06T05:19:37.885Z,93.13
2019-04-06T05:22:06.300Z,93.13
2019-04-06T05:24:34.718Z,93.05
2019-04-06T05:27:03.142Z,93.00
2019-04-06T05:29:33.102Z,92.79
2019-04-06T05:32:01.667Z,93.10
2019-04-06T05:34:30.079Z,93.14
2019-04-06T05:36:58.480Z,93.25
2019-04-06T05:39:26.875Z,93.18
2019-04-06T05:41:55.314Z,93.15
2019-04-06T05:44:23.719Z,93.16
2019-04-06T05:46:52.126Z,93.29
2019-04-06T05:49:20.560Z,93.21
2019-04-06T05:51:49.092Z,93.26
2019-04-06T05:54:17.501Z,93.21
2019-04-06T05:56:46.141Z,93.25
2019-04-06T05:59:14.606Z,93.22
2019-04-06T06:01:43.029Z,93.14
2019-04-06T06:04:11.601Z,93.11
2019-04-06T06:06:40.154Z,93.16
2019-04-06T06:09:08.727Z,93.08
2019-04-06T06:11:37.278Z,93.11
2019-04-06T06:14:06.639Z,92.98
2019-04-06T06:16:35.036Z,93.05
2019-04-06T06:19:03.502Z,93.21
2019-04-06T06:21:32.055Z,93.19
2019-04-06T06:24:00.466Z,93.22
2019-04-06T06:26:29.031Z,93.15
2019-04-06T06:28:57.434Z,93.11
2019-04-06T06:31:25.864Z,93.00
2019-04-06T06:33:54.367Z,92.90
2019-04-06T06:36:22.767Z,92.93
2019-04-06T06:38:51.176Z,92.85
2019-04-06T06:41:19.829Z,92.87
2019-04-06T06:43:48.172Z,92.76
2019-04-06T06:46:16.664Z,92.70
2019-04-06T06:48:45.089Z,92.59
2019-04-06T06:51:13.631Z,92.68
2019-04-06T06:53:42.175Z,92.91
2019-04-06T06:56:14.503Z,92.50
2019-04-06T06:58:42.873Z,92.36
2019-04-06T07:01:11.297Z,92.27
2019-04-06T07:03:39.922Z,92.22
2019-04-06T07:06:08.458Z,91.73
2019-04-06T07:08:37.174Z,91.83
2019-04-06T07:11:08.066Z,91.88
2019-04-06T07:13:37.190Z,91.57
2019-04-06T07:16:07.460Z,91.16
2019-04-06T07:18:35.879Z,90.80
2019-04-06T07:21:04.712Z,90.36
2019-04-06T07:23:33.515Z,89.76
2019-04-06T07:26:01.954Z,89.43
2019-04-06T07:28:37.465Z,89.10
2019-04-06T07:31:00.549Z,89.09
2019-04-06T07:33:28.965Z,87.83
2019-04-06T07:35:57.390Z,88.15
2019-04-06T07:38:26.078Z,88.22
2019-04-06T07:40:54.462Z,87.65
2019-04-06T07:43:22.887Z,87.47
2019-04-06T07:45:51.274Z,87.07
2019-04-06T07:48:19.812Z,86.70
2019-04-06T07:50:48.450Z,86.06
2019-04-06T07:53:16.852Z,85.76
2019-04-06T07:55:45.287Z,85.27
2019-04-06T07:58:13.776Z,85.46
2019-04-06T08:00:42.201Z,85.51
2019-04-06T08:03:10.607Z,84.78
2019-04-06T08:05:39.115Z,85.17
2019-04-06T08:08:07.508Z,83.81
2019-04-06T08:10:35.958Z,84.22
2019-04-06T08:13:04.410Z,83.97
2019-04-06T08:15:33.014Z,82.61
2019-04-06T08:18:01.412Z,83.20
2019-04-06T08:20:29.800Z,82.32
2019-04-06T08:22:58.226Z,83.09
2019-04-06T08:25:26.912Z,83.27
2019-04-06T08:27:55.229Z,82.71
2019-04-06T08:30:23.679Z,83.80
2019-04-06T08:32:52.170Z,83.30
2019-04-06T08:35:25.789Z,82.40
2019-04-06T08:37:50.773Z,81.69
2019-04-06T08:40:19.321Z,81.08
2019-04-06T08:42:47.722Z,81.26
2019-04-06T08:45:16.442Z,81.46
2019-04-06T08:47:44.874Z,81.90
2019-04-06T08:50:13.622Z,81.54
2019-04-06T08:52:42.106Z,81.59
2019-04-06T08:55:10.720Z,81.54
2019-04-06T08:57:39.151Z,80.71
2019-04-06T09:00:08.295Z,80.49
2019-04-06T09:02:36.772Z,80.53
2019-04-06T09:05:06.891Z,79.59
2019-04-06T09:07:35.396Z,80.37
2019-04-06T09:10:06.318Z,80.21
2019-04-06T09:12:34.758Z,80.66
2019-04-06T09:15:04.620Z,80.35
2019-04-06T09:17:33.023Z,79.86
2019-04-06T09:20:01.637Z,79.45
2019-04-06T09:22:29.997Z,79.07
2019-04-06T09:24:58.435Z,77.84
2019-04-06T09:27:26.875Z,77.91
2019-04-06T09:29:55.488Z,78.31
2019-04-06T09:32:23.875Z,77.11
2019-04-06T09:34:52.367Z,76.57
2019-04-06T09:37:21.013Z,77.21
2019-04-06T09:39:49.350Z,77.51
2019-04-06T09:42:17.769Z,77.50
2019-04-06T09:44:47.823Z,77.31
2019-04-06T09:47:23.953Z,76.01
2019-04-06T09:49:53.956Z,76.57
2019-04-06T09:52:40.239Z,76.53
2019-04-06T09:55:13.167Z,75.74
2019-04-06T09:57:43.499Z,75.32
2019-04-06T10:00:14.097Z,75.18
2019-04-06T10:02:47.041Z,75.08
2019-04-06T10:05:17.105Z,75.09
2019-04-06T10:08:03.621Z,74.44
2019-04-06T10:10:36.620Z,75.02
2019-04-06T10:13:18.823Z,74.76
2019-04-06T10:15:54.998Z,74.72
2019-04-06T10:18:31.559Z,73.99
2019-04-06T10:21:17.763Z,74.47
2019-04-06T10:24:05.986Z,74.04
2019-04-06T10:26:47.646Z,74.86
2019-04-06T10:29:18.156Z,74.24
2019-04-06T10:32:04.928Z,75.39
2019-04-06T10:34:38.158Z,75.40
2019-04-06T10:37:17.418Z,74.48
2019-04-06T10:39:47.464Z,72.90
2019-04-06T10:42:32.743Z,73.16
2019-04-06T10:45:05.914Z,73.48
2019-04-06T10:47:36.002Z,72.83
2019-04-06T10:50:25.027Z,73.18
2019-04-06T10:53:01.471Z,73.19
2019-04-06T10:55:40.359Z,72.57
2019-04-06T10:58:12.956Z,71.98
2019-04-06T11:00:46.052Z,71.22
2019-04-06T11:03:19.009Z,71.92
2019-04-06T11:05:58.090Z,71.31
2019-04-06T11:08:44.709Z,71.45
2019-04-06T11:11:19.358Z,71.32
2019-04-06T11:13:59.035Z,71.13
2019-04-06T11:16:47.671Z,70.93
2019-04-06T11:19:32.127Z,69.99
2019-04-06T11:22:02.484Z,70.78
2019-04-06T11:24:48.625Z,70.21
2019-04-06T11:27:34.837Z,68.70
2019-04-06T11:30:17.396Z,69.87
2019-04-06T11:32:53.354Z,69.99
2019-04-06T11:35:38.761Z,69.96
2019-04-06T11:38:20.786Z,70.10
2019-04-06T11:40:56.643Z,69.01
2019-04-06T11:43:26.712Z,68.84
2019-04-06T11:46:09.029Z,68.36
2019-04-06T11:48:39.103Z,68.37
2019-04-06T11:51:09.148Z,68.03
2019-04-06T11:53:51.197Z,67.48
2019-04-06T11:56:27.492Z,66.85
2019-04-06T11:59:03.766Z,67.51
2019-04-06T12:01:36.963Z,68.43
2019-04-06T12:04:07.047Z,68.01
2019-04-06T12:06:43.137Z,66.29
2019-04-06T12:09:21.955Z,66.68
2019-04-06T12:11:52.039Z,65.71
2019-04-06T12:14:24.685Z,65.16
2019-04-06T12:17:04.131Z,65.36
2019-04-06T12:19:34.289Z,64.55
2019-04-06T12:22:20.729Z,64.72
2019-04-06T12:25:08.945Z,63.40
2019-04-06T12:27:55.214Z,64.12
2019-04-06T12:30:37.437Z,64.10
2019-04-06T12:32:59.880Z,62.48
2019-04-06T12:35:45.849Z,63.32
2019-04-06T12:38:33.994Z,64.96
2019-04-06T12:41:16.150Z,63.54
2019-04-06T12:43:55.238Z,63.98
2019-04-06T12:46:41.277Z,63.88
2019-04-06T12:49:11.356Z,62.51
2019-04-06T12:51:54.040Z,63.18
2019-04-06T12:54:40.332Z,63.88
2019-04-06T12:57:13.562Z,61.93
2019-04-06T12:59:43.608Z,62.48
2019-04-06T13:02:16.420Z,62.57
2019-04-06T13:04:48.968Z,64.55
2019-04-06T13:07:27.942Z,64.89
2019-04-06T13:09:58.091Z,65.18
2019-04-06T13:12:28.561Z,65.02
2019-04-06T13:15:05.121Z,64.60
2019-04-06T13:17:46.960Z,64.93
2019-04-06T13:20:17.360Z,64.43
2019-04-06T13:22:59.458Z,64.31
2019-04-06T13:25:29.603Z,64.79
2019-04-06T13:28:11.857Z,64.44
2019-04-06T13:31:02.969Z,63.76
2019-04-06T13:33:29.069Z,63.45
2019-04-06T13:35:59.093Z,62.84
2019-04-06T13:38:38.715Z,62.01
2019-04-06T13:41:25.264Z,62.75
2019-04-06T13:43:55.676Z,61.55
2019-04-06T13:46:42.202Z,62.55
2019-04-06T13:49:17.971Z,62.19
2019-04-06T13:51:50.750Z,62.43
2019-04-06T13:54:37.537Z,63.36
2019-04-06T13:57:07.833Z,61.15
2019-04-06T13:59:49.999Z,59.35
2019-04-06T14:02:20.504Z,58.97
2019-04-06T14:05:05.598Z,58.48
2019-04-06T14:07:44.489Z,60.28
2019-04-06T14:10:26.833Z,60.28
2019-04-06T14:12:56.906Z,61.12
2019-04-06T14:15:43.424Z,60.82
2019-04-06T14:18:13.510Z,61.16
2019-04-06T14:20:49.291Z,60.95
2019-04-06T14:23:19.368Z,61.82
2019-04-06T14:26:04.851Z,61.82
2019-04-06T14:28:51.280Z,61.99
2019-04-06T14:31:30.895Z,62.74
2019-04-06T14:34:09.913Z,63.09
2019-04-06T14:36:46.015Z,62.66
2019-04-06T14:39:28.161Z,63.06
2019-04-06T14:42:14.918Z,62.47
2019-04-06T14:44:50.741Z,62.22
2019-04-06T14:47:20.774Z,61.46
2019-04-06T14:49:51.041Z,62.35
2019-04-06T14:52:24.090Z,61.12
2019-04-06T14:55:06.153Z,60.51
2019-04-06T14:57:51.201Z,61.52
2019-04-06T15:00:21.384Z,61.36
2019-04-06T15:02:57.548Z,61.40
2019-04-06T15:05:44.109Z,60.35
2019-04-06T15:08:28.923Z,61.01
2019-04-06T15:11:01.982Z,60.75
2019-04-06T15:13:48.113Z,60.37
2019-04-06T15:16:34.564Z,60.86
2019-04-06T15:19:10.484Z,60.49
2019-04-06T15:21:43.790Z,60.98
2019-04-06T15:24:16.359Z,59.58
2019-04-06T15:26:58.799Z,60.31
2019-04-06T15:29:28.968Z,58.16
2019-04-06T15:32:15.545Z,58.16
2019-04-06T15:35:03.275Z,57.73
2019-04-06T15:37:48.987Z,57.40
2019-04-06T15:40:34.319Z,57.66
2019-04-06T15:43:18.789Z,58.34
2019-04-06T15:45:48.345Z,58.28
2019-04-06T15:48:38.016Z,59.28
2019-04-06T15:51:23.434Z,59.82
2019-04-06T15:54:01.324Z,59.82
2019-04-06T15:56:46.406Z,59.73
2019-04-06T15:59:17.236Z,60.35
2019-04-06T16:01:58.536Z,58.14
2019-04-06T16:04:29.119Z,60.25
2019-04-06T16:06:59.270Z,58.92
2019-04-06T16:09:38.359Z,60.08
2019-04-06T16:12:08.427Z,59.42
2019-04-06T16:14:41.531Z,59.45
2019-04-06T16:17:14.390Z,58.99
2019-04-06T16:19:45.077Z,58.47
2019-04-06T16:22:18.637Z,59.66
2019-04-06T16:25:05.474Z,59.96
2019-04-06T16:27:35.602Z,59.85
2019-04-06T16:30:08.227Z,59.62
2019-04-06T16:32:38.452Z,59.81
2019-04-06T16:35:14.981Z,60.38
2019-04-06T16:37:48.006Z,60.17
2019-04-06T16:40:23.835Z,60.79
2019-04-06T16:42:59.825Z,61.08
2019-04-06T16:45:48.016Z,61.46
2019-04-06T16:48:36.848Z,61.94
2019-04-06T16:51:25.017Z,62.77
2019-04-06T16:53:55.521Z,60.92
2019-04-06T16:56:28.208Z,62.56
2019-04-06T16:59:10.245Z,64.08
2019-04-06T17:01:42.814Z,63.58
2019-04-06T17:04:31.488Z,63.54
2019-04-06T17:07:16.686Z,64.35
2019-04-06T17:09:49.942Z,63.65
2019-04-06T17:12:28.803Z,64.27
2019-04-06T17:15:15.280Z,65.21
2019-04-06T17:17:51.277Z,65.24
2019-04-06T17:20:33.562Z,64.10
2019-04-06T17:23:15.664Z,65.36
2019-04-06T17:25:58.062Z,66.54
2019-04-06T17:28:44.485Z,66.60
2019-04-06T17:31:14.985Z,67.36
2019-04-06T17:34:03.748Z,67.62
2019-04-06T17:36:36.851Z,68.09
2019-04-06T17:39:14.325Z,67.94
2019-04-06T17:42:00.534Z,66.99
2019-04-06T17:44:48.833Z,67.96
2019-04-06T17:47:37.243Z,68.90
2019-04-06T17:50:12.155Z,69.15
2019-04-06T17:52:42.765Z,68.92
2019-04-06T17:55:13.440Z,69.18
2019-04-06T17:57:43.663Z,70.15
2019-04-06T18:00:30.417Z,70.65
2019-04-06T18:03:06.610Z,70.65
2019-04-06T18:05:48.785Z,71.90
2019-04-06T18:08:21.619Z,72.94
2019-04-06T18:10:54.748Z,73.59
2019-04-06T18:13:40.201Z,73.93
2019-04-06T18:16:08.999Z,74.15
2019-04-06T18:18:37.506Z,74.86
2019-04-06T18:21:05.984Z,75.22
2019-04-06T18:23:34.605Z,75.29
2019-04-06T18:26:03.617Z,76.46
2019-04-06T18:28:32.097Z,75.74
2019-04-06T18:31:04.836Z,75.41
2019-04-06T18:33:33.258Z,75.98
2019-04-06T18:36:01.703Z,76.24
2019-04-06T18:38:34.452Z,76.52
2019-04-06T18:41:02.864Z,76.65
2019-04-06T18:43:31.554Z,76.22
2019-04-06T18:45:59.901Z,76.48
2019-04-06T18:48:28.569Z,77.16
2019-04-06T18:50:57.130Z,77.89
2019-04-06T18:53:25.561Z,77.43
2019-04-06T18:55:54.016Z,77.82
2019-04-06T18:58:22.422Z,78.61
2019-04-06T19:00:51.002Z,78.61
2019-04-06T19:03:19.467Z,79.31
2019-04-06T19:05:50.050Z,79.55
2019-04-06T19:08:18.580Z,79.52
2019-04-06T19:10:47.560Z,80.05
2019-04-06T19:13:16.059Z,79.58
2019-04-06T19:15:44.486Z,79.97
2019-04-06T19:18:13.451Z,79.79
2019-04-06T19:20:41.939Z,80.05
2019-04-06T19:23:10.376Z,80.50
2019-04-06T19:25:38.768Z,80.02
2019-04-06T19:28:07.657Z,80.43
2019-04-06T19:30:36.278Z,80.03
2019-04-06T19:33:04.820Z,80.09
2019-04-06T19:35:33.302Z,80.45
2019-04-06T19:38:02.019Z,81.07
2019-04-06T19:40:30.692Z,81.32
2019-04-06T19:42:59.181Z,81.68
2019-04-06T19:45:27.680Z,82.08
2019-04-06T19:47:56.693Z,82.37
2019-04-06T19:50:25.201Z,82.69
2019-04-06T19:52:53.610Z,82.50
2019-04-06T19:55:22.885Z,81.88
2019-04-06T19:57:51.688Z,81.16
2019-04-06T20:00:20.575Z,81.92
2019-04-06T20:02:49.619Z,81.70
2019-04-06T20:05:18.509Z,81.82
2019-04-06T20:07:46.995Z,82.23
2019-04-06T20:10:15.576Z,82.67
2019-04-06T20:12:44.016Z,82.63
2019-04-06T20:15:13.254Z,83.00
2019-04-06T20:17:41.777Z,82.76
2019-04-06T20:20:10.263Z,82.85
2019-04-06T20:22:38.709Z,82.63
2019-04-06T20:25:08.218Z,81.86
2019-04-06T20:27:36.773Z,82.19
2019-04-06T20:30:07.811Z,82.68
2019-04-06T20:32:36.353Z,83.01
2019-04-06T20:35:07.632Z,83.18
2019-04-06T20:37:36.000Z,83.13
2019-04-06T20:40:07.738Z,83.00
2019-04-06T20:42:36.132Z,82.83
2019-04-06T20:45:06.893Z,82.88
2019-04-06T20:47:35.693Z,82.47
2019-04-06T20:50:07.114Z,82.87
2019-04-06T20:52:36.078Z,82.41
2019-04-06T20:55:06.886Z,83.39
2019-04-06T20:57:35.288Z,83.26
2019-04-06T21:00:06.029Z,83.47
2019-04-06T21:02:34.480Z,83.42
2019-04-06T21:05:03.110Z,83.74
2019-04-06T21:07:31.466Z,83.91
2019-04-06T21:10:00.540Z,84.41
2019-04-06T21:12:29.176Z,84.34
2019-04-06T21:14:57.678Z,84.89
2019-04-06T21:17:26.605Z,84.64
2019-04-06T21:19:55.176Z,84.57
2019-04-06T21:22:23.919Z,84.94
2019-04-06T21:24:52.745Z,85.52
2019-04-06T21:27:21.748Z,85.82
2019-04-06T21:29:50.733Z,85.93
2019-04-06T21:32:19.167Z,86.38
2019-04-06T21:34:47.593Z,86.44
2019-04-06T21:37:16.015Z,86.79
2019-04-06T21:39:44.937Z,87.17
2019-04-06T21:42:14.448Z,87.62
2019-04-06T21:44:43.460Z,87.42
2019-04-06T21:47:12.159Z,87.15
2019-04-06T21:49:40.573Z,86.66
2019-04-06T21:52:09.010Z,86.40
2019-04-06T21:54:37.434Z,86.05
2019-04-06T21:57:06.197Z,85.92
2019-04-06T21:59:34.741Z,86.29
2019-04-06T22:02:03.385Z,85.89
2019-04-06T22:04:32.644Z,85.96
2019-04-06T22:07:01.271Z,86.06
2019-04-06T22:09:30.467Z,86.16
2019-04-06T22:11:58.960Z,86.95
2019-04-06T22:14:27.377Z,86.54
2019-04-06T22:16:56.040Z,86.96
2019-04-06T22:19:24.802Z,86.65
2019-04-06T22:21:54.340Z,86.99
2019-04-06T22:24:22.978Z,86.88
2019-04-06T22:26:51.933Z,86.83
2019-04-06T22:29:20.717Z,87.12
2019-04-06T22:31:49.260Z,86.84
2019-04-06T22:34:17.659Z,86.49
2019-04-06T22:36:46.702Z,86.32
2019-04-06T22:39:15.441Z,86.75
2019-04-06T22:41:43.880Z,86.98
2019-04-06T22:44:12.259Z,87.74
2019-04-06T22:46:40.821Z,87.58
2019-04-06T22:49:09.229Z,88.02
2019-04-06T22:51:37.970Z,87.54
2019-04-06T22:54:06.809Z,86.94
2019-04-06T22:56:35.299Z,86.58
2019-04-06T22:59:03.719Z,86.29
2019-04-06T23:01:34.569Z,86.56
2019-04-06T23:04:07.699Z,86.88
2019-04-06T23:06:47.007Z,87.56
2019-04-06T23:09:15.425Z,88.09
2019-04-06T23:11:43.836Z,88.46
2019-04-06T23:14:12.516Z,88.45
2019-04-06T23:16:44.045Z,88.24
2019-04-06T23:19:12.455Z,88.08
2019-04-06T23:21:41.370Z,88.37
2019-04-06T23:24:10.089Z,88.09
2019-04-06T23:26:39.790Z,88.27
2019-04-06T23:29:08.806Z,88.49
2019-04-06T23:31:37.401Z,88.56
2019-04-06T23:34:05.870Z,88.50
2019-04-06T23:36:34.268Z,88.44
2019-04-06T23:39:03.439Z,88.23
2019-04-06T23:41:32.302Z,88.08
2019-04-06T23:44:00.906Z,88.08
2019-04-06T23:46:30.159Z,88.04
2019-04-06T23:48:59.207Z,88.18
2019-04-06T23:51:29.290Z,88.34
2019-04-06T23:53:58.418Z,88.76
2019-04-06T23:56:26.918Z,88.73
2019-04-06T23:58:55.339Z,89.04
